Renato Pacheco

Olheiro - Flamengo
4 Abr 2027
Domingo
Processo

Personalidade

Adaptabilidade (6) Ambição (11) Controvérsia (12) Lealdade (8) Pressão (12) Profissionalismo (6) Espírito Esportivo (3) Temperamento (12)

Perfil

Estilo de Treinamento Democrático
Licença Continental B
Determinação 14
Gestão de Pessoas 6
Motivação 15
Disciplina 7
Satisfação no Trabalho
100%
Fadiga
0%
Função Olheiro
Salário 68.2K p/s
Contrato 14.03.2028

Desempenho

Comportamento Bom
Eficácia do Treinamento
45%
Desenvolvimento do Jogador
40%
Prevenção de Lesões
60%
Implementação Tática
45%

Eventos Recentes

Participou de uma reunião de recrutamento agora
Recomendou um alvo de transferência agora
Avaliou um jogador agora
Avaliou um jogador agora
Avaliou um jogador agora
Avaliou um jogador 7d atrás
Avaliou um jogador 7d atrás
Avaliou um jogador 7d atrás

Monitorando agora

215
Jogador Clube Status Habilidade Confiança Observado Última observação Último voto
Enzo Barrenechea Benfica Ativo 152 / 155 40% 5 03.04.2027 -
Elliot Anderson Manchester City Ativo 157 / 163 40% 3 03.04.2027 -
João Neves Paris Saint-Germain Ativo 163 / 158 40% 1 03.04.2027 -
Matthijs de Ligt Manchester United Ativo 167 / 155 40% 3 01.04.2027 -
Leonardo Lelo Braga Ativo 134 / 131 40% 6 01.04.2027 -
Willian Pacho Paris Saint-Germain Ativo 170 / 174 40% 1 01.04.2027 -
Alexis Mac Allister Liverpool Ativo 162 / 149 40% 5 31.03.2027 -
Wesley Fofana Chelsea Ativo 168 / 154 40% 4 31.03.2027 -
Gabriel Gudmundsson Leeds United Ativo 142 / 145 40% 3 30.03.2027 -
Víctor Gómez Braga Ativo 143 / 148 40% 10 30.03.2027 -
Alberto Costa Porto Ativo 147 / 144 40% 4 30.03.2027 -
Kevin Fulham Ativo 145 / 151 40% 2 30.03.2027 -
Loum Tchaouna Coventry City Ativo 146 / 149 40% 2 30.03.2027 -
Pau Víctor Braga Ativo 134 / 123 40% 5 28.03.2027 -
Khvicha Kvaratskhelia Paris Saint-Germain Ativo 171 / 150 40% 1 28.03.2027 -
Sorriso Famalicao Ativo 131 / 139 40% 4 27.03.2027 -
Gabri Veiga Porto Ativo 155 / 145 40% 1 27.03.2027 -
Chiquinho Alverca Ativo 131 / 112 40% 3 26.03.2027 -
Rodrigo Zalazar Sporting CP Ativo 154 / 139 40% 6 26.03.2027 -
Geny Sporting CP Ativo 149 / 140 40% 1 25.03.2027 -
Ander Barrenetxea Real Sociedad Ativo 152 / 133 40% 1 25.03.2027 -
Maximiliano Araújo Sporting CP Ativo 144 / 135 40% 5 24.03.2027 -
Cesar Corona Veracruz Ativo 142 / 134 40% 3 24.03.2027 -
Brian Rodríguez Club America Ativo 134 / 111 40% 2 24.03.2027 -
Vinícius Lopes Santa Clara Ativo 127 / 105 40% 3 22.03.2027 -
Óscar Mingueza Crystal Palace Ativo 154 / 141 40% 4 21.03.2027 -
Robin Risser RC Lens Ativo 143 / 129 40% 3 21.03.2027 -
Yehvann Diouf OGC Nice Ativo 143 / 126 40% 5 21.03.2027 -
Robin Roefs Sunderland Ativo 147 / 133 40% 2 21.03.2027 -
Boubacar Kamara Aston Villa Ativo 161 / 179 40% 1 21.03.2027 -
Saša Lukić Ipswich Town Ativo 141 / 144 40% 1 21.03.2027 -
Amadou Onana Aston Villa Ativo 149 / 141 40% 6 19.03.2027 -
Radek Vítek Middlesbrough Ativo 132 / 153 40% 4 19.03.2027 -
James Trafford Leeds United Ativo 145 / 131 40% 3 19.03.2027 -
Ryan Gravenberch Liverpool Ativo 163 / 163 40% 1 19.03.2027 -
Tino Livramento Newcastle United Ativo 150 / 175 40% 1 19.03.2027 -
Exequiel Palacios Ipswich Town Ativo 160 / 160 40% 5 17.03.2027 -
Levi Colwill Chelsea Ativo 163 / 167 40% 2 17.03.2027 -
Sven Botman Newcastle United Ativo 156 / 141 40% 1 17.03.2027 -
Alan Varela Porto Ativo 145 / 162 40% 2 16.03.2027 -
Toni Tamarit Alverca Ativo 111 / 127 40% 1 16.03.2027 -
Iván Fresneda Sporting CP Ativo 145 / 155 40% 6 14.03.2027 -
Fabián Paris Saint-Germain Ativo 168 / 148 40% 1 13.03.2027 -
Olivier Boscagli Brighton Ativo 150 / 132 40% 1 12.03.2027 -
Erik Lira Cruz Azul Ativo 134 / 119 40% 1 10.03.2027 -
Pedro Porro Tottenham Ativo 142 / 162 40% 5 09.03.2027 -
Zeno Debast Sporting CP Ativo 146 / 131 40% 2 09.03.2027 -
Brandon Aguilera Rio Ave Ativo 113 / 132 40% 1 09.03.2027 -
Yanis Begraoui Estoril Praia Ativo 140 / 138 40% 2 08.03.2027 -
Abraham Marcus Estrela da Amadora Ativo 125 / 130 40% 3 08.03.2027 -
Ricard Sánchez Estoril Praia Ativo 127 / 112 40% 1 08.03.2027 -
Hugo Pérez Torreense Ativo 126 / 126 40% 1 08.03.2027 -
Mason Greenwood Fenerbahce Ativo 161 / 138 40% 2 07.03.2027 -
Makan Aïko Tondela Ativo 117 / 123 40% 2 07.03.2027 -
Yehor Yarmoliuk Brentford Ativo 144 / 140 40% 1 06.03.2027 -
Jakub Stolarczyk Leicester City Ativo 142 / 137 40% 5 05.03.2027 -
Edoardo Corvi Parma Ativo 133 / 116 40% 1 05.03.2027 -
Elia Caprile Cagliari Ativo 143 / 161 40% 1 05.03.2027 -
Nordi Mukiele Sunderland Ativo 150 / 142 40% 2 03.03.2027 -
Jan Bednarek Porto Ativo 150 / 157 40% 1 03.03.2027 -
Adrien Truffert Bournemouth Ativo 152 / 152 40% 3 02.03.2027 -
Jaden Philogene Ipswich Town Ativo 135 / 135 40% 2 02.03.2027 -
Carlos Augusto Inter Ativo 158 / 140 40% 1 02.03.2027 -
Reiss Nelson AC Milan Ativo 146 / 148 40% 1 02.03.2027 -
Cezary Miszta Rio Ave Ativo 128 / 150 40% 3 27.02.2027 -
Gabriel Brazão Santos Ativo 134 / 137 40% 1 27.02.2027 -
Julio Enciso Ipswich Town Ativo 140 / 130 40% 2 26.02.2027 -
Facundo Torres Shakhtar Ativo 137 / 137 40% 1 26.02.2027 -
Ole Pohlmann Rio Ave Ativo 117 / 116 40% 1 26.02.2027 -
Luiz Henrique Zenit Ativo 146 / 130 40% 3 23.02.2027 -
Bernardo Fontes Braga Ativo 129 / 116 40% 3 22.02.2027 -
Mads Hermansen West Ham United Ativo 138 / 128 40% 1 22.02.2027 -
Lorenzo Palmisani Frosinone Ativo 128 / 137 40% 2 19.02.2027 -
Rico Lewis Manchester City Ativo 151 / 137 40% 3 18.02.2027 -
Martín Zubimendi Arsenal Ativo 169 / 145 40% 2 17.02.2027 -
Jurriën Timber Arsenal Ativo 165 / 172 40% 1 17.02.2027 -
Jake O'Brien Everton Ativo 147 / 148 40% 3 14.02.2027 -
Gianluigi Donnarumma Manchester City Ativo 172 / 157 40% 2 09.02.2027 -
Lazar Carević Famalicao Ativo 126 / 136 40% 2 09.02.2027 -
Xavi Simons Tottenham Ativo 158 / 164 40% 1 09.02.2027 -
Carl Rushworth Coventry City Ativo 135 / 129 40% 2 08.02.2027 -
Kostantis Tzolakis Hull City Ativo 134 / 145 40% 2 08.02.2027 -
Heorhii Sudakov Benfica Ativo 152 / 147 40% 1 07.02.2027 -
Gonçalo Inácio Sporting CP Ativo 156 / 162 40% 3 05.02.2027 -
Yuri Alberto Corinthians Rejeitado 138 / 151 40% 1 04.02.2027 Mais informações
Mario Dorgeles Braga Ativo 129 / 127 40% 1 03.02.2027 -
Haissem Hassan Bloemfontein Celtic Ativo 129 / 133 40% 1 03.02.2027 -
Grégoire Coudert Burnley Ativo 133 / 114 40% 1 31.01.2027 -
Iñaki Peña Panathinaikos Ativo 147 / 130 40% 1 31.01.2027 -
Sam Tickle Wigan Athletic Ativo 132 / 125 40% 2 27.01.2027 -
Diogo Costa Paris Saint-Germain Ativo 156 / 169 40% 2 27.01.2027 -
Samuel Soares Benfica Ativo 132 / 118 40% 1 25.01.2027 -
Michael Cooper Sheffield United Ativo 132 / 136 40% 3 23.01.2027 -
Axel Alderweireld KV Oostende Ativo 148 / 141 40% 1 22.01.2027 -
Senne Lammens Manchester United Ativo 154 / 147 40% 1 19.01.2027 -
Lucas Chevalier Paris Saint-Germain Ativo 161 / 173 40% 1 19.01.2027 -
Bart Verbruggen Brighton Ativo 156 / 148 40% 1 19.01.2027 -
Hugo Souza Corinthians Ativo 136 / 150 40% 3 17.01.2027 -
Marco Carnesecchi Atalanta Ativo 149 / 167 40% 1 16.01.2027 -
Mile Svilar AS Roma Ativo 162 / 161 40% 1 09.01.2027 -
Matthieu Epolo Standard Liege Ativo 120 / 124 40% 1 04.01.2027 -
Alan Varela Porto Perdido 148 / 153 40% 3 28.12.2026 -
Tariq Lamptey Queens Park Rangers Perdido 132 / 144 40% 1 28.12.2026 -
Nuno Moreira Vasco da Gama Ativo 125 / 133 79% 1 21.12.2026 Aprovar
George Hirst Stoke City Ativo 132 / 139 40% 2 28.11.2026 -
Georginio Rutter Brighton Ativo 152 / 132 40% 3 28.11.2026 -
Yuri Alberto Corinthians Perdido 141 / 131 40% 6 27.11.2026 Mais informações
Henrique Araújo Casa Pia Ativo 119 / 106 40% 1 27.11.2026 -
Lucas Duarte Felgueiras Ativo 105 / 108 40% 3 26.11.2026 -
Largie Ramazani Leeds United Ativo 139 / 139 40% 1 26.11.2026 -
Yousef Salech Cardiff City Ativo 122 / 138 40% 1 26.11.2026 -
Barış Alper Yılmaz Galatasaray Ativo 140 / 135 40% 5 25.11.2026 -
Nico Paz Como Ativo 163 / 151 40% 6 25.11.2026 -
Dominic Calvert-Lewin Leeds United Ativo 140 / 147 40% 4 25.11.2026 -
Borja Mayoral Getafe Ativo 138 / 144 40% 3 24.11.2026 -
Victor Froholdt Porto Ativo 144 / 168 40% 4 23.11.2026 -
Frenkie de Jong Barcelona Ativo 168 / 173 40% 1 23.11.2026 -
Jakub Kiwior Porto Ativo 151 / 156 40% 2 22.11.2026 -
Johnny Cardoso Atlético Madrid Ativo 147 / 160 40% 2 22.11.2026 -
Tyler Adams Bournemouth Ativo 155 / 155 40% 1 22.11.2026 -
Mateo Retegui Al-Qadisiyah Ativo 150 / 170 40% 4 21.11.2026 -
Tomás Araújo Benfica Ativo 146 / 144 40% 2 21.11.2026 -
Isaac Romero Sevilla Ativo 148 / 141 40% 1 21.11.2026 -
Alexis Vega Toluca Ativo 154 / 155 40% 4 19.11.2026 -
Taty Castellanos West Ham United Ativo 150 / 146 40% 1 19.11.2026 -
Conor Gallagher Tottenham Ativo 157 / 142 40% 1 19.11.2026 -
Ismaël Bennacer Palmeiras Ativo 143 / 149 40% 1 19.11.2026 -
Nico González Newcastle United Ativo 152 / 144 40% 1 19.11.2026 -
Santiago Castro AS Roma Ativo 153 / 163 40% 5 17.11.2026 -
Jean-Luc Morin Tours Ativo 144 / 135 40% 1 17.11.2026 -
Jean-Philippe Mateta Crystal Palace Ativo 152 / 132 40% 4 16.11.2026 -
Jesús Areso Athletic Bilbao Ativo 144 / 141 40% 1 15.11.2026 -
Azzedine Ounahi Girona Ativo 134 / 132 40% 1 15.11.2026 -
Maxence Lacroix Chelsea Ativo 151 / 142 40% 1 15.11.2026 -
Vangelis Pavlidis Benfica Ativo 151 / 142 40% 6 14.11.2026 -
Evanilson Bournemouth Ativo 150 / 153 40% 2 14.11.2026 -
Omar El Hilali Espanyol Ativo 152 / 164 40% 1 12.11.2026 -
Fotis Ioannidis Sporting CP Ativo 132 / 148 40% 2 07.11.2026 -
Percy Erasmus SuperSport United Ativo 129 / 112 40% 2 05.11.2026 -
Germán Valera Elche Ativo 129 / 148 40% 1 05.11.2026 -
Dodi Lukébakio Benfica Ativo 139 / 145 40% 4 03.11.2026 -
Jason Januzaj Mouscron Perdido 140 / 135 40% 4 02.11.2026 -
Tammy Abraham Aston Villa Ativo 146 / 150 40% 5 02.11.2026 -
Thiago Brentford Ativo 147 / 137 40% 1 01.11.2026 -
Gianluca Scamacca Atalanta Ativo 145 / 158 40% 6 31.10.2026 -
Ez Abde Betis Ativo 143 / 165 40% 1 30.10.2026 -
Igor Paixão Olympique de Marseille Ativo 155 / 146 40% 1 30.10.2026 -
Mahmoud Al Bloushi Al Shabab Ativo 153 / 132 40% 5 29.10.2026 -
Dominic Solanke Tottenham Ativo 147 / 148 40% 3 29.10.2026 -
Federico Chiesa Liverpool Ativo 149 / 153 40% 3 28.10.2026 -
Marcus Rashford Manchester United Ativo 151 / 158 40% 2 28.10.2026 -
Figueiredo Alverca Ativo 132 / 112 40% 1 28.10.2026 -
Fran García Betis Ativo 149 / 161 40% 1 27.10.2026 -
Adnan Courtois KV Oostende Ativo 116 / 139 40% 1 27.10.2026 -
Tani Oluwaseyi Villarreal Ativo 145 / 153 40% 3 26.10.2026 -
Luis Suárez Sporting CP Ativo 161 / 137 40% 4 22.10.2026 -
Florentino Luís Ipswich Town Ativo 147 / 144 40% 1 22.10.2026 -
Gavi Barcelona Ativo 158 / 179 40% 1 22.10.2026 -
Liam Delap Nottingham Forest Ativo 142 / 154 40% 1 22.10.2026 -
Victor Osimhen Galatasaray Ativo 168 / 148 40% 4 21.10.2026 -
Jonathan Dubasin Osasuna Ativo 134 / 149 40% 1 21.10.2026 -
Camilo Durán Bloemfontein Celtic Ativo 127 / 136 40% 2 19.10.2026 -
Karim Adeyemi Barcelona Ativo 147 / 154 40% 2 15.10.2026 -
Cesar Corona Veracruz Perdido 137 / 146 40% 1 14.10.2026 -
Kevin Schade Brentford Ativo 143 / 162 40% 2 13.10.2026 -
Giacomo Raspadori Atalanta Ativo 149 / 134 40% 3 13.10.2026 -
Steven Bergwijn Al-Ittihad Ativo 144 / 133 40% 6 10.10.2026 -
Takefusa Kubo Real Sociedad Ativo 146 / 170 40% 1 09.10.2026 -
Iván Martín Racing Club Ativo 144 / 146 40% 1 08.10.2026 -
Igor Jesus Nottingham Forest Ativo 140 / 139 40% 1 07.10.2026 -
Rasmus Højlund Napoli Ativo 153 / 163 40% 1 03.10.2026 -
José Manuel López Palmeiras Ativo 139 / 147 40% 1 30.09.2026 -
Zé Leite Oliveirense Ativo 123 / 133 40% 1 30.09.2026 -
Brennan Johnson Everton Ativo 135 / 144 40% 3 29.09.2026 -
Alejandro Piedrahita Deportivo Pereira Ativo 121 / 117 40% 1 27.09.2026 -
Joe Gomez Liverpool Ativo 150 / 150 40% 1 25.09.2026 -
Nathan Collins Brentford Ativo 139 / 129 40% 1 24.09.2026 -
Tadeo Allende Inter Miami CF Ativo 118 / 133 40% 1 24.09.2026 -
André Wolverhampton Ativo 140 / 148 40% 1 21.09.2026 -
Leandro Barreiro Benfica Ativo 137 / 127 40% 1 21.09.2026 -
Yoan Bonny Inter Ativo 148 / 145 40% 3 19.09.2026 -
Nikola Vlašić Torino Ativo 137 / 153 40% 5 18.09.2026 -
Michael Kayode Brentford Ativo 147 / 167 40% 1 18.09.2026 -
Lewis Hall Newcastle United Ativo 146 / 157 40% 1 16.09.2026 -
Ao Tanaka Leeds United Ativo 144 / 143 40% 1 16.09.2026 -
Eduardo Quaresma Sporting CP Ativo 146 / 151 40% 1 16.09.2026 -
Benjamin Šeško Manchester United Ativo 148 / 169 40% 1 13.09.2026 -
Joshua Zirkzee Manchester United Ativo 138 / 147 40% 1 13.09.2026 -
Neco Williams Nottingham Forest Ativo 142 / 142 40% 1 11.09.2026 -
Mathys Tel Tottenham Ativo 135 / 126 40% 1 09.09.2026 -
Donyell Malen AS Roma Ativo 156 / 139 40% 1 09.09.2026 -
Richard Ríos Benfica Ativo 142 / 136 40% 1 08.09.2026 -
Roberto Fernández Braga Ativo 142 / 141 40% 1 08.09.2026 -
Alexey Batrakov Galatasaray Ativo 133 / 130 40% 4 06.09.2026 -
Tasos Douvikas Como Ativo 135 / 125 40% 1 06.09.2026 -
Santiago Giménez AC Milan Ativo 140 / 148 40% 3 02.09.2026 -
Luca Koleosho Paris FC Ativo 120 / 151 40% 1 02.09.2026 -
Artem Dovbyk AS Roma Ativo 135 / 143 40% 1 01.09.2026 -
Xavier Biscayzacú Defensor Sporting Ativo 122 / 130 40% 1 30.08.2026 -
Julián Quiñones Al-Qadisiyah Ativo 147 / 151 40% 3 24.08.2026 -
Kauã Elias Shakhtar Ativo 127 / 115 40% 1 24.08.2026 -
Matías Fernández-Pardo LOSC Lille Ativo 137 / 138 40% 1 18.08.2026 -
Ayoub Oufkir AZ Ativo 121 / 140 40% 1 15.08.2026 -
Rayan Bournemouth Ativo 126 / 138 40% 1 15.08.2026 -
Eliezer Mayenda Stade Rennais Ativo 132 / 135 40% 1 14.08.2026 -
Moise Kean Fiorentina Ativo 153 / 162 40% 2 13.08.2026 -
Stefanos Tzimas Brighton Ativo 128 / 135 40% 2 11.08.2026 -
Vitor Roque Palmeiras Ativo 134 / 136 40% 2 11.08.2026 -
Sergi Altimira Sporting CP Ativo 145 / 138 40% 1 05.08.2026 -
Gonçalo Nogueira Vitoria Guimaraes Ativo 124 / 110 40% 1 05.08.2026 -
Leo Castledine Middlesbrough Ativo 119 / 124 40% 1 05.08.2026 -
Gorka Guruzeta Athletic Bilbao Ativo 141 / 135 40% 1 03.08.2026 -
Ibrahima Ba Sporting CP Ativo 122 / 134 40% 1 02.08.2026 -
Rodrigo Pinheiro Famalicao Ativo 125 / 124 40% 1 02.08.2026 -
Christian Pulisic AC Milan Ativo 160 / 174 40% 1 01.08.2026 -